Time;durP1;ratioP1;P1;durP2;ratioP2;P2;SDS_P1;SDS_P2;PMS_P1;PMS_P2;Temp;Humidity;BMP_temperature;BMP_pressure;BME280_temperature;BME280_humidity;BME280_pressure;Samples;Min_cycle;Max_cycle;Signal;HPM_P1;HPM_P2
2024/03/17 00:00:05;;;;;;;12.50;4.60;;;;;;;5.06;82.45;100590.36;130384;1303;24171;-86
2024/03/17 00:04:25;;;;;;;;;;;;;;;;;;;;;
2024/03/17 00:08:19;;;;;;;;;;;;;;;;;;;;;
2024/03/17 00:28:19;;;;;;;;;;;;;;;;;;;;;
2024/03/17 00:32:23;;;;;;;;;;;;;;;;;;;;;
2024/03/17 00:40:44;;;;;;;;;;;;;;;;;;;;;
2024/03/17 00:44:59;;;;;;;;;;;;;;;;;;;;;
2024/03/17 00:49:11;;;;;;;;;;;;;;;;;;;;;
2024/03/17 00:53:15;;;;;;;;;;;;;;;;;;;;;
2024/03/17 00:56:56;;;;;;;9.00;3.30;;;;;;;4.18;81.63;100620.55;130239;1305;22616;-86
2024/03/17 01:00:14;;;;;;;;;;;;;;;;;;;;;
2024/03/17 01:04:14;;;;;;;;;;;;;;;;;;;;;
2024/03/17 01:07:49;;;;;;;7.30;3.30;;;;;;;3.96;81.98;100619.16;130449;1301;24252;-86
2024/03/17 01:11:31;;;;;;;15.60;4.00;;;;;;;3.93;82.52;100620.10;130296;1303;22563;-87
2024/03/17 01:15:34;;;;;;;;;;;;;;;;;;;;;
2024/03/17 01:19:49;;;;;;;10.20;4.00;;;;;;;3.80;82.77;100618.53;130320;1301;22605;-84
2024/03/17 01:32:55;;;;;;;10.20;3.50;;;;;;;3.71;82.38;100632.52;130200;1308;22649;-84
2024/03/17 01:37:17;;;;;;;8.70;3.50;;;;;;;3.67;82.37;100638.39;130248;1301;22579;-85
2024/03/17 01:40:39;;;;;;;8.30;3.50;;;;;;;3.58;82.58;100638.83;130187;1301;24735;-85
2024/03/17 01:45:12;;;;;;;10.00;3.70;;;;;;;3.52;82.81;100644.36;130179;1285;25526;-87
2024/03/17 01:49:09;;;;;;;;;;;;;;;;;;;;;
2024/03/17 01:52:52;;;;;;;;;;;;;;;;;;;;;
2024/03/17 01:57:28;;;;;;;11.30;4.00;;;;;;;3.33;83.48;100647.80;130192;1304;22563;-86
2024/03/17 02:01:15;;;;;;;;;;;;;;;;;;;;;
2024/03/17 02:05:40;;;;;;;6.50;3.60;;;;;;;3.23;83.46;100646.21;130142;1302;22546;-85
2024/03/17 02:09:43;;;;;;;;;;;;;;;;;;;;;
2024/03/17 02:17:51;;;;;;;;;;;;;;;;;;;;;
2024/03/17 02:22:23;;;;;;;;;;;;;;;;;;;;;
2024/03/17 02:26:01;;;;;;;9.00;3.80;;;;;;;3.02;83.85;100663.88;130161;1308;22552;-83
2024/03/17 02:29:54;;;;;;;;;;;;;;;;;;;;;
2024/03/17 02:33:40;;;;;;;;;;;;;;;;;;;;;
2024/03/17 02:37:05;;;;;;;15.80;5.30;;;;;;;2.88;84.19;100660.31;130246;1303;25440;-85
2024/03/17 02:40:10;;;;;;;13.20;4.20;;;;;;;2.84;84.14;100661.33;130082;1307;22753;-87
2024/03/17 02:43:20;;;;;;;9.80;3.40;;;;;;;2.80;84.45;100663.12;130375;1304;22580;-87
2024/03/17 02:46:24;;;;;;;11.10;4.00;;;;;;;2.78;84.57;100663.42;130094;1308;25217;-88
2024/03/17 02:49:35;;;;;;;13.60;3.60;;;;;;;2.75;84.70;100664.33;130157;1307;22696;-85
2024/03/17 02:52:56;;;;;;;7.60;3.60;;;;;;;2.74;84.77;100665.33;130236;1301;22597;-84
2024/03/17 02:57:29;;;;;;;;;;;;;;;;;;;;;
2024/03/17 03:01:12;;;;;;;8.90;3.40;;;;;;;2.66;84.70;100677.15;130124;1301;22587;-87
2024/03/17 03:04:37;;;;;;;;;;;;;;;;;;;;;
2024/03/17 03:08:01;;;;;;;;;;;;;;;;;;;;;
2024/03/17 03:11:45;;;;;;;12.00;4.00;;;;;;;2.50;84.70;100683.66;130198;1304;25514;-85
2024/03/17 03:14:48;;;;;;;8.20;3.40;;;;;;;2.44;84.60;100686.12;130349;1307;22574;-86
2024/03/17 03:17:52;;;;;;;10.70;3.40;;;;;;;2.41;84.95;100683.90;130131;1308;22598;-85
2024/03/17 03:21:14;;;;;;;7.40;3.40;;;;;;;2.36;85.10;100684.73;130225;1304;22591;-83
2024/03/17 03:24:17;;;;;;;10.60;3.10;;;;;;;2.31;84.90;100687.31;130231;1308;22556;-86
2024/03/17 03:27:31;;;;;;;11.70;4.00;;;;;;;2.27;84.96;100684.48;129966;1305;25261;-87
2024/03/17 03:30:42;;;;;;;13.50;3.70;;;;;;;2.24;85.08;100686.05;130198;1302;25451;-85
2024/03/17 03:34:30;;;;;;;;;;;;;;;;;;;;;
2024/03/17 03:41:45;;;;;;;11.20;4.00;;;;;;;2.20;84.78;100689.27;130352;1301;22717;-88
2024/03/17 03:45:12;;;;;;;9.30;3.40;;;;;;;2.17;84.71;100686.52;130074;1303;24205;-85
2024/03/17 03:49:15;;;;;;;;;;;;;;;;;;;;;
2024/03/17 03:53:12;;;;;;;;;;;;;;;;;;;;;
2024/03/17 03:58:03;;;;;;;9.00;2.80;;;;;;;1.96;84.69;100686.10;130447;1301;23177;-86
2024/03/17 04:01:55;;;;;;;;;;;;;;;;;;;;;
2024/03/17 04:06:32;;;;;;;;;;;;;;;;;;;;;
2024/03/17 04:15:20;;;;;;;;;;;;;;;;;;;;;
2024/03/17 04:19:10;;;;;;;;;;;;;;;;;;;;;
2024/03/17 04:23:09;;;;;;;16.10;4.10;;;;;;;1.74;85.13;100684.48;129737;1307;22626;-88
2024/03/17 04:27:01;;;;;;;;;;;;;;;;;;;;;
2024/03/17 04:30:07;;;;;;;;;;;;;;;1.71;85.31;100685.92;129730;1304;25227;-86
2024/03/17 04:37:30;;;;;;;;;;;;;;;;;;;;;
2024/03/17 04:41:47;;;;;;;10.00;4.00;;;;;;;1.64;86.02;100694.55;130535;1301;22578;-85
2024/03/17 04:53:46;;;;;;;;;;;;;;;;;;;;;
2024/03/17 04:57:06;;;;;;;;;;;;;;;;;;;;;
2024/03/17 05:12:25;;;;;;;11.60;4.40;;;;;;;1.85;86.09;100708.46;129720;1297;559304;-76
2024/03/17 05:16:56;;;;;;;7.80;3.60;;;;;;;1.80;86.13;100711.00;126094;1298;5366176;-78
2024/03/17 05:20:30;;;;;;;11.80;3.90;;;;;;;1.76;86.38;100718.04;129635;1298;24248;-76
2024/03/17 05:28:31;;;;;;;15.30;3.60;;;;;;;2.05;86.70;100724.77;130018;1304;22564;-76
2024/03/17 05:32:17;;;;;;;10.20;3.70;;;;;;;2.34;86.64;100727.48;130056;1301;22586;-76
2024/03/17 05:35:52;;;;;;;;;;;;;;;;;;;;;
2024/03/17 05:39:48;;;;;;;10.50;4.10;;;;;;;3.02;86.01;100724.54;129930;1298;24277;-77
2024/03/17 05:43:43;;;;;;;13.40;3.60;;;;;;;3.35;85.75;100729.13;129932;1304;22566;-77
2024/03/17 05:47:27;;;;;;;10.50;3.30;;;;;;;3.67;85.31;100730.06;129916;1298;25053;-77
2024/03/17 05:50:31;;;;;;;8.20;3.10;;;;;;;4.08;84.58;100734.91;134363;1304;23065;-80
2024/03/17 05:53:43;;;;;;;10.40;3.50;;;;;;;4.19;84.41;100733.89;134157;1299;23218;-76
2024/03/17 05:56:52;;;;;;;15.00;3.90;;;;;;;4.48;83.96;100732.88;134169;1301;22313;-80
2024/03/17 06:00:07;;;;;;;13.30;4.20;;;;;;;4.79;83.40;100737.37;134175;1304;22494;-75
2024/03/17 06:03:34;;;;;;;;;;;;;;;;;;;;;
2024/03/17 06:06:43;;;;;;;12.10;3.70;;;;;;;5.43;81.76;100734.98;134346;1298;22321;-76
2024/03/17 06:09:47;;;;;;;12.40;4.00;;;;;;;5.71;81.56;100740.70;134089;1301;22373;-76
2024/03/17 06:13:29;;;;;;;12.90;3.60;;;;;;;5.93;80.48;100741.67;134155;1298;22460;-77
2024/03/17 06:16:58;;;;;;;;;;;;;;;;;;;;;
2024/03/17 06:24:06;;;;;;;11.80;3.00;;;;;;;6.44;78.10;100739.96;134000;1298;23024;-75
2024/03/17 06:27:51;;;;;;;10.80;3.20;;;;;;;6.58;76.82;100745.89;134146;1301;22492;-76
2024/03/17 06:31:11;;;;;;;;;;;;;;;;;;;;;
2024/03/17 06:35:03;;;;;;;13.70;3.60;;;;;;;6.93;76.39;100746.17;134053;1304;22405;-76
2024/03/17 06:38:27;;;;;;;11.70;4.30;;;;;;;7.07;75.52;100753.67;134181;1298;22328;-76
2024/03/17 06:41:34;;;;;;;12.30;3.00;;;;;;;7.08;73.99;100759.02;134155;1305;22330;-76
2024/03/17 06:44:37;;;;;;;12.30;3.60;;;;;;;7.05;74.16;100763.16;134164;1298;23230;-83
2024/03/17 06:48:24;;;;;;;15.30;3.40;;;;;;;7.16;73.78;100763.39;134150;1298;22353;-81
2024/03/17 06:51:25;;;;;;;13.80;2.60;;;;;;;7.23;72.80;100768.34;134167;1298;22405;-77
2024/03/17 06:54:28;;;;;;;;;;;;;;;7.45;73.23;100770.52;134194;1298;25460;-77
2024/03/17 06:58:06;;;;;;;;;;;;;;;;;;;;;
2024/03/17 07:01:24;;;;;;;12.90;3.60;;;;;;;7.64;70.96;100775.38;134189;1298;22376;-75
2024/03/17 07:05:08;;;;;;;9.40;2.90;;;;;;;7.62;70.03;100769.34;134095;1298;22200;-74
2024/03/17 07:08:33;;;;;;;9.70;2.70;;;;;;;7.58;68.38;100769.54;134112;1298;22362;-74
2024/03/17 07:11:53;;;;;;;;;;;;;;;;;;;;;
2024/03/17 07:15:16;;;;;;;11.10;3.00;;;;;;;7.62;68.27;100775.85;134360;1298;22102;-74
2024/03/17 07:18:20;;;;;;;10.20;2.80;;;;;;;7.84;68.92;100775.75;133957;1301;22393;-72
2024/03/17 07:21:26;;;;;;;11.20;2.60;;;;;;;8.12;67.87;100772.96;134368;1304;22418;-76
2024/03/17 07:27:57;;;;;;;16.20;2.80;;;;;;;8.10;65.88;100777.71;134347;1298;23124;-78
2024/03/17 07:31:59;;;;;;;11.50;2.20;;;;;;;8.16;65.26;100778.79;134109;1298;22443;-81
2024/03/17 07:35:04;;;;;;;12.00;3.70;;;;;;;8.31;66.24;100791.73;134331;1304;22418;-76
2024/03/17 07:38:56;;;;;;;15.30;3.10;;;;;;;8.66;65.68;100795.38;134186;1297;22465;-75
2024/03/17 07:42:13;;;;;;;8.80;2.70;;;;;;;8.40;63.17;100789.55;134058;1304;22445;-76
2024/03/17 07:45:30;;;;;;;14.30;2.90;;;;;;;8.10;63.72;100789.36;134130;1304;22953;-77
2024/03/17 07:48:37;;;;;;;13.30;2.80;;;;;;;8.29;63.83;100783.15;134121;1304;23046;-74
2024/03/17 07:51:38;;;;;;;13.30;2.30;;;;;;;8.47;64.15;100779.04;133950;1299;23116;-74
2024/03/17 07:54:46;;;;;;;14.30;3.20;;;;;;;8.27;61.98;100789.78;134158;1299;22383;-74
2024/03/17 07:57:59;;;;;;;12.60;2.60;;;;;;;7.95;62.42;100789.95;134342;1298;22198;-74
2024/03/17 08:01:05;;;;;;;9.10;3.10;;;;;;;7.72;61.59;100786.31;133860;1304;23061;-73
2024/03/17 08:04:12;;;;;;;11.60;2.70;;;;;;;7.74;62.24;100794.95;133832;1304;22343;-74
2024/03/17 08:07:57;;;;;;;11.20;2.70;;;;;;;7.69;62.12;100790.64;134154;1304;23088;-77
2024/03/17 08:11:18;;;;;;;9.80;2.90;;;;;;;7.13;61.71;100799.38;134236;1297;23056;-76
2024/03/17 08:14:19;;;;;;;15.40;3.00;;;;;;;6.62;61.77;100796.71;134300;1298;22295;-69
2024/03/17 08:17:20;;;;;;;;;;;;;;;6.24;62.65;100801.22;134347;1304;22481;-71
2024/03/17 08:20:53;;;;;;;12.80;2.80;;;;;;;6.11;63.56;100799.23;134318;1304;22299;-72
2024/03/17 08:23:59;;;;;;;11.90;3.10;;;;;;;6.42;64.11;100789.73;134143;1299;23111;-71
2024/03/17 08:27:03;;;;;;;14.00;2.80;;;;;;;6.85;64.03;100791.54;133988;1299;22369;-72
2024/03/17 08:30:21;;;;;;;;;;;;;;;;;;;;;
2024/03/17 08:33:28;;;;;;;8.80;2.80;;;;;;;7.48;64.69;100787.10;134297;1298;22352;-72
2024/03/17 08:36:50;;;;;;;12.80;2.50;;;;;;;7.45;63.12;100786.45;133979;1301;22430;-73
2024/03/17 08:39:56;;;;;;;12.40;2.90;;;;;;;7.15;63.75;100793.98;134319;1304;23029;-72
2024/03/17 08:43:18;;;;;;;11.80;3.50;;;;;;;6.87;63.01;100794.20;134308;1298;23158;-72
2024/03/17 08:46:29;;;;;;;10.60;3.20;;;;;;;6.51;62.35;100801.96;134173;1301;22889;-72
2024/03/17 08:49:33;;;;;;;11.80;3.00;;;;;;;6.37;63.55;100806.27;134121;1305;22512;-76
2024/03/17 08:52:42;;;;;;;12.10;2.30;;;;;;;6.62;62.41;100795.83;134120;1298;22250;-72
2024/03/17 08:55:43;;;;;;;9.30;2.40;;;;;;;6.46;61.35;100792.09;134330;1298;23050;-71
2024/03/17 08:58:50;;;;;;;9.20;2.90;;;;;;;6.32;60.98;100798.98;134317;1304;22432;-70
2024/03/17 09:02:10;;;;;;;10.50;1.90;;;;;;;6.22;61.32;100803.79;133995;1301;22319;-69
2024/03/17 09:05:18;;;;;;;9.70;2.70;;;;;;;6.34;62.08;100802.35;134327;1297;22367;-72
2024/03/17 09:08:26;;;;;;;8.40;2.10;;;;;;;6.39;61.95;100802.79;134248;1297;22636;-70
2024/03/17 09:11:28;;;;;;;9.40;2.70;;;;;;;6.35;61.68;100799.62;133945;1305;22403;-70
2024/03/17 09:14:32;;;;;;;8.80;2.60;;;;;;;6.28;61.89;100801.95;134297;1304;23528;-72
2024/03/17 09:17:33;;;;;;;9.50;2.40;;;;;;;6.19;62.01;100804.60;133959;1298;22501;-72
2024/03/17 09:20:43;;;;;;;10.40;2.30;;;;;;;6.15;61.78;100800.13;134113;1301;22473;-72
2024/03/17 09:23:47;;;;;;;13.40;3.20;;;;;;;6.16;62.23;100804.98;134278;1297;24986;-72
2024/03/17 09:27:19;;;;;;;;;;;;;;;;;;;;;
2024/03/17 09:30:23;;;;;;;12.70;2.70;;;;;;;5.95;61.51;100807.70;134193;1298;22410;-71
2024/03/17 09:33:24;;;;;;;;;;;;;;;5.89;61.23;100802.35;134317;1298;22447;-72
2024/03/17 09:36:46;;;;;;;9.60;2.60;;;;;;;5.80;61.15;100805.63;134278;1298;22865;-71
2024/03/17 09:40:00;;;;;;;8.40;2.70;;;;;;;5.80;61.56;100807.60;134219;1304;22438;-71
2024/03/17 09:43:01;;;;;;;8.10;2.20;;;;;;;5.81;61.96;100813.44;133911;1298;22491;-71
2024/03/17 09:46:18;;;;;;;;;;;;;;;;;;;;;
2024/03/17 09:49:26;;;;;;;16.30;2.60;;;;;;;6.00;62.25;100808.89;134146;1300;22340;-71
2024/03/17 09:52:34;;;;;;;9.70;2.60;;;;;;;6.15;61.77;100805.23;133963;1301;22393;-73
2024/03/17 09:55:38;;;;;;;7.70;2.60;;;;;;;6.31;61.69;100808.35;134154;1298;22399;-72
2024/03/17 09:58:41;;;;;;;11.80;2.60;;;;;;;6.46;61.39;100805.91;134151;1299;22415;-70
2024/03/17 10:01:43;;;;;;;8.70;2.60;;;;;;;6.93;61.41;100801.38;133959;1299;22448;-74
2024/03/17 10:04:48;;;;;;;12.70;3.70;;;;;;;7.29;60.67;100793.36;134145;1298;22374;-71
2024/03/17 10:08:02;;;;;;;8.80;2.20;;;;;;;7.31;60.41;100793.30;134190;1301;22454;-72
2024/03/17 10:11:32;;;;;;;9.10;2.30;;;;;;;7.25;59.44;100797.51;134116;1299;22371;-71
2024/03/17 10:14:59;;;;;;;12.10;2.70;;;;;;;7.47;59.77;100794.77;134173;1298;22392;-71
2024/03/17 10:18:00;;;;;;;7.80;2.60;;;;;;;8.01;60.46;100789.83;134100;1298;22223;-71
2024/03/17 10:21:25;;;;;;;11.80;2.80;;;;;;;8.40;59.25;100784.77;134115;1305;22297;-76
2024/03/17 10:24:31;;;;;;;10.80;2.90;;;;;;;8.83;58.97;100782.55;134118;1298;22402;-71
2024/03/17 10:27:32;;;;;;;7.70;2.60;;;;;;;8.99;57.90;100780.20;134084;1298;23074;-73
2024/03/17 10:30:42;;;;;;;9.10;2.30;;;;;;;8.71;56.55;100783.82;134166;1298;23057;-71
2024/03/17 10:34:06;;;;;;;10.60;3.20;;;;;;;8.66;56.66;100784.40;133792;1301;22387;-71
2024/03/17 10:37:33;;;;;;;10.80;2.50;;;;;;;9.09;57.87;100776.60;134064;1305;22406;-72
2024/03/17 10:41:07;;;;;;;8.90;3.40;;;;;;;9.02;56.25;100775.67;134200;1298;22467;-71
2024/03/17 10:44:09;;;;;;;11.80;3.30;;;;;;;8.50;56.64;100789.36;134187;1298;22370;-72
2024/03/17 10:47:24;;;;;;;10.80;2.20;;;;;;;8.19;56.64;100788.77;134049;1299;22313;-72
2024/03/17 10:50:31;;;;;;;10.90;2.80;;;;;;;8.19;57.70;100787.15;134060;1298;22406;-73
2024/03/17 10:53:54;;;;;;;13.30;2.60;;;;;;;8.44;57.91;100786.77;134076;1301;22338;-72
2024/03/17 10:56:59;;;;;;;15.90;2.90;;;;;;;8.63;56.61;100783.44;134046;1284;22449;-72
2024/03/17 11:00:19;;;;;;;8.50;2.30;;;;;;;8.89;56.86;100778.84;134116;1301;22402;-71
2024/03/17 11:03:39;;;;;;;12.30;2.40;;;;;;;9.22;56.27;100771.02;134056;1301;22459;-75
2024/03/17 11:07:49;;;;;;;9.70;2.30;;;;;;;9.60;55.87;100764.86;134167;1301;23158;-71
2024/03/17 11:10:38;;;;;;;5.70;1.90;;;;;;;10.04;55.60;100767.88;134083;1298;22482;-72
2024/03/17 11:14:09;;;;;;;7.40;2.90;;;;;;;10.33;53.08;100756.48;133834;1304;22372;-73
2024/03/17 11:17:19;;;;;;;9.70;3.20;;;;;;;10.32;52.61;100760.82;134120;1297;22272;-73
2024/03/17 11:20:28;;;;;;;7.70;2.20;;;;;;;10.47;53.10;100755.73;133968;1304;22445;-75
2024/03/17 11:24:45;;;;;;;13.70;2.90;;;;;;;10.68;52.33;100752.32;134090;1297;23321;-79
2024/03/17 11:28:03;;;;;;;8.50;2.70;;;;;;;10.75;52.77;100756.90;134214;1297;22361;-75
2024/03/17 11:31:37;;;;;;;;;;;;;;;;;;;;;
2024/03/17 11:35:45;;;;;;;15.30;3.10;;;;;;;10.28;51.36;100749.33;134289;1298;22391;-75
2024/03/17 11:39:37;;;;;;;;;;;;;;;;;;;;;
2024/03/17 11:43:40;;;;;;;;;;;;;;;;;;;;;
2024/03/17 11:47:21;;;;;;;6.90;2.20;;;;;;;9.93;50.34;100741.24;134134;1304;23126;-71
2024/03/17 11:50:30;;;;;;;9.40;2.30;;;;;;;9.40;50.57;100741.48;134293;1305;22382;-72
2024/03/17 11:53:42;;;;;;;12.30;3.40;;;;;;;9.00;51.14;100739.52;134261;1298;22375;-71
2024/03/17 11:57:14;;;;;;;12.60;4.20;;;;;;;8.64;51.60;100737.38;134286;1298;22426;-72
2024/03/17 12:00:41;;;;;;;;;;;;;;;;;;;;;
2024/03/17 12:03:45;;;;;;;28.40;11.80;;;;;;;8.05;52.03;100737.64;134254;1301;22489;-73
2024/03/17 12:07:14;;;;;;;21.00;7.40;;;;;;;7.85;52.65;100738.86;134306;1298;22421;-73
2024/03/17 12:10:32;;;;;;;15.90;4.20;;;;;;;7.63;52.89;100737.95;134309;1301;22290;-72
2024/03/17 12:13:36;;;;;;;10.30;3.80;;;;;;;7.49;53.35;100739.17;134296;1298;22220;-71
2024/03/17 12:16:40;;;;;;;11.80;2.80;;;;;;;7.44;52.86;100732.52;134114;1305;22292;-72
2024/03/17 12:19:48;;;;;;;9.20;2.70;;;;;;;7.40;53.09;100731.29;134284;1304;22296;-70
2024/03/17 12:23:16;;;;;;;11.40;3.30;;;;;;;7.42;54.00;100730.99;134119;1298;22325;-71
2024/03/17 12:26:20;;;;;;;10.70;3.20;;;;;;;7.47;54.26;100732.65;134292;1301;22288;-71
2024/03/17 12:29:36;;;;;;;9.00;2.90;;;;;;;7.63;54.65;100733.00;134258;1298;22974;-72
2024/03/17 12:32:46;;;;;;;8.60;2.50;;;;;;;7.80;54.15;100726.45;134028;1298;22342;-71
2024/03/17 12:36:13;;;;;;;9.80;2.80;;;;;;;7.81;54.32;100727.42;134278;1304;22479;-73
2024/03/17 12:39:39;;;;;;;6.00;2.40;;;;;;;7.83;53.74;100722.98;134172;1304;22478;-73
2024/03/17 12:43:09;;;;;;;8.30;3.10;;;;;;;7.71;54.07;100717.38;134230;1295;22400;-72
2024/03/17 12:46:30;;;;;;;9.60;2.40;;;;;;;7.57;54.28;100715.91;134274;1304;22324;-72
2024/03/17 12:49:35;;;;;;;14.90;3.10;;;;;;;7.49;54.18;100711.70;134268;1298;23113;-71
2024/03/17 12:52:40;;;;;;;13.60;3.10;;;;;;;7.45;54.39;100718.09;134292;1298;22416;-72
2024/03/17 13:03:17;;;;;;;7.30;3.00;;;;;;;8.08;54.38;100705.99;133370;1304;22447;-72
2024/03/17 13:06:34;;;;;;;10.40;2.40;;;;;;;8.34;53.67;100696.46;133470;1304;22514;-73
2024/03/17 13:09:40;;;;;;;7.70;3.00;;;;;;;8.55;53.65;100691.20;134002;1298;23127;-72
2024/03/17 13:12:41;;;;;;;10.80;2.90;;;;;;;8.42;51.98;100691.53;134237;1297;22431;-74
2024/03/17 13:15:53;;;;;;;11.50;2.70;;;;;;;8.04;52.66;100693.33;134188;1298;22996;-72
2024/03/17 13:18:58;;;;;;;6.80;2.60;;;;;;;7.92;53.23;100687.70;134115;1298;22312;-71
2024/03/17 13:22:01;;;;;;;12.70;2.50;;;;;;;7.92;53.14;100687.52;134267;1299;22493;-73
2024/03/17 13:25:21;;;;;;;13.40;3.40;;;;;;;7.81;53.46;100687.67;134227;1298;22412;-72
2024/03/17 13:28:24;;;;;;;8.90;2.30;;;;;;;7.83;53.75;100688.80;133939;1301;22395;-73
2024/03/17 13:31:25;;;;;;;6.70;2.40;;;;;;;8.00;53.78;100683.67;134253;1295;23048;-72
2024/03/17 13:34:34;;;;;;;6.10;1.80;;;;;;;8.22;53.84;100688.91;133873;1301;22384;-72
2024/03/17 13:37:45;;;;;;;7.00;1.90;;;;;;;8.31;51.85;100676.45;134209;1298;23121;-72
2024/03/17 13:40:55;;;;;;;8.20;2.20;;;;;;;8.28;51.41;100677.23;134223;1304;22368;-73
2024/03/17 13:44:03;;;;;;;10.90;1.70;;;;;;;8.34;51.21;100672.13;134091;1299;23188;-72
2024/03/17 13:47:14;;;;;;;;;;;;;;;;;;;;;
2024/03/17 13:50:18;;;;;;;5.60;2.10;;;;;;;8.48;51.02;100671.11;134232;1298;22511;-72
2024/03/17 13:53:21;;;;;;;5.40;1.90;;;;;;;8.65;50.30;100674.34;134242;1297;22437;-74
2024/03/17 13:56:25;;;;;;;5.70;2.00;;;;;;;8.55;49.13;100672.19;134094;1301;23089;-71
2024/03/17 13:59:26;;;;;;;5.10;2.00;;;;;;;8.33;49.30;100673.61;134269;1298;22397;-72
2024/03/17 14:02:29;;;;;;;5.40;2.00;;;;;;;8.17;49.26;100677.23;134268;1298;23152;-74
2024/03/17 14:05:34;;;;;;;5.40;1.80;;;;;;;8.05;48.93;100672.14;134269;1298;22434;-71
2024/03/17 14:08:35;;;;;;;6.40;1.70;;;;;;;7.98;48.44;100676.38;134279;1298;22368;-72
2024/03/17 14:11:38;;;;;;;4.80;1.70;;;;;;;7.96;47.98;100664.95;134268;1299;22188;-72
2024/03/17 14:14:39;;;;;;;5.70;2.50;;;;;;;7.87;47.92;100668.40;134272;1298;22305;-72
2024/03/17 14:17:43;;;;;;;5.60;1.50;;;;;;;7.71;48.55;100666.69;134301;1298;22448;-71
2024/03/17 14:20:44;;;;;;;7.80;2.00;;;;;;;7.65;48.93;100668.04;134280;1298;22481;-72
2024/03/17 14:23:48;;;;;;;5.60;2.50;;;;;;;7.61;48.77;100665.98;134300;1301;22395;-72
2024/03/17 14:26:49;;;;;;;;;;;;;;;7.56;49.18;100667.64;134310;1298;22436;-72
2024/03/17 14:29:51;;;;;;;5.50;2.20;;;;;;;7.49;49.20;100670.68;134302;1305;22371;-72
2024/03/17 14:33:05;;;;;;;9.70;2.60;;;;;;;7.45;48.97;100661.72;134135;1305;22520;-72
2024/03/17 14:36:11;;;;;;;5.90;2.10;;;;;;;7.40;49.06;100665.68;134276;1298;22263;-72
2024/03/17 14:39:30;;;;;;;;;;;;;;;;;;;;;
2024/03/17 14:42:31;;;;;;;9.30;2.50;;;;;;;7.39;49.02;100679.15;134253;1298;22492;-70
2024/03/17 14:45:34;;;;;;;;;;;;;;;7.33;49.14;100682.59;134293;1305;22482;-72
2024/03/17 14:48:42;;;;;;;5.80;1.80;;;;;;;7.26;49.63;100681.98;134101;1305;22551;-72
2024/03/17 14:52:00;;;;;;;7.90;2.10;;;;;;;7.30;49.30;100675.46;134300;1305;23129;-71
2024/03/17 14:55:11;;;;;;;8.70;2.50;;;;;;;7.43;49.17;100678.42;134300;1305;23131;-73
2024/03/17 14:58:15;;;;;;;11.20;3.10;;;;;;;7.43;49.75;100673.88;134310;1294;22379;-69
2024/03/17 15:01:19;;;;;;;11.70;3.40;;;;;;;7.44;50.35;100670.46;134297;1298;22199;-72
2024/03/17 15:04:35;;;;;;;7.30;2.50;;;;;;;7.50;50.70;100673.27;134240;1298;22384;-72
2024/03/17 15:07:44;;;;;;;8.30;2.30;;;;;;;7.37;50.03;100671.69;134289;1301;22266;-72
2024/03/17 15:10:46;;;;;;;6.90;2.90;;;;;;;7.20;50.43;100675.30;134264;1298;22435;-72
2024/03/17 15:14:10;;;;;;;8.00;2.70;;;;;;;7.06;51.02;100676.52;133992;1300;23015;-72
2024/03/17 15:17:15;;;;;;;7.00;2.60;;;;;;;6.98;51.44;100678.95;134035;1303;23053;-72
2024/03/17 15:20:21;;;;;;;7.60;2.60;;;;;;;7.00;51.67;100674.55;133977;1306;22573;-72
2024/03/17 15:23:31;;;;;;;7.00;2.70;;;;;;;7.08;52.07;100675.47;133979;1307;22620;-72
2024/03/17 15:26:38;;;;;;;10.90;2.30;;;;;;;7.12;51.90;100679.69;133967;1301;22382;-72
2024/03/17 15:29:41;;;;;;;7.00;1.90;;;;;;;7.11;51.48;100672.57;133983;1307;23279;-72
2024/03/17 15:32:47;;;;;;;5.30;1.80;;;;;;;7.05;51.55;100673.61;133987;1305;22402;-72
2024/03/17 15:35:49;;;;;;;9.90;2.50;;;;;;;7.01;51.67;100674.48;133835;1302;22453;-72
2024/03/17 15:38:50;;;;;;;8.40;1.90;;;;;;;6.92;52.19;100674.48;133995;1301;22389;-72
2024/03/17 15:42:13;;;;;;;10.60;2.40;;;;;;;6.84;52.57;100681.53;133972;1305;22197;-72
2024/03/17 15:45:45;;;;;;;9.90;2.60;;;;;;;6.76;53.01;100684.48;134182;1305;22322;-72
2024/03/17 15:48:46;;;;;;;7.10;2.20;;;;;;;6.65;53.11;100682.20;134272;1298;22441;-72
2024/03/17 15:51:48;;;;;;;7.10;3.10;;;;;;;6.54;53.49;100682.79;134122;1301;22463;-73
2024/03/17 15:54:50;;;;;;;8.50;2.80;;;;;;;6.44;53.89;100685.85;134269;1301;22413;-71
2024/03/17 15:57:54;;;;;;;8.50;2.30;;;;;;;6.41;54.44;100686.67;134296;1295;22357;-69
2024/03/17 16:00:57;;;;;;;10.20;3.40;;;;;;;6.30;54.51;100689.29;134029;1300;22169;-72
2024/03/17 16:04:04;;;;;;;10.00;3.60;;;;;;;6.21;54.73;100693.55;134228;1300;23019;-72
2024/03/17 16:07:15;;;;;;;8.60;3.00;;;;;;;6.11;54.99;100693.65;134232;1299;22610;-71
2024/03/17 16:10:42;;;;;;;8.90;3.20;;;;;;;6.04;54.99;100698.80;134030;1299;22399;-76
2024/03/17 16:13:49;;;;;;;9.50;2.60;;;;;;;5.97;55.33;100701.11;134122;1305;22454;-73
2024/03/17 16:17:23;;;;;;;10.30;2.50;;;;;;;5.91;55.63;100701.21;134020;1301;23217;-72
2024/03/17 16:20:46;;;;;;;7.30;2.50;;;;;;;5.86;55.76;100702.29;133673;1301;22523;-72
2024/03/17 16:23:59;;;;;;;8.30;2.40;;;;;;;5.79;55.87;100709.90;133642;1301;22347;-72
2024/03/17 16:27:18;;;;;;;11.00;2.90;;;;;;;5.74;56.13;100711.16;133562;1304;23171;-72
2024/03/17 16:30:27;;;;;;;12.30;3.50;;;;;;;5.68;56.42;100713.02;133671;1308;22423;-73
2024/03/17 16:33:31;;;;;;;8.40;3.10;;;;;;;5.63;56.44;100712.92;133651;1302;23262;-74
2024/03/17 16:36:42;;;;;;;8.80;3.60;;;;;;;5.59;56.55;100717.09;133554;1301;22378;-72
2024/03/17 16:39:46;;;;;;;12.00;4.00;;;;;;;5.56;56.92;100717.33;133661;1303;23116;-73
2024/03/17 16:43:01;;;;;;;19.00;6.00;;;;;;;5.53;57.32;100716.13;133657;1302;23174;-72
2024/03/17 16:46:34;;;;;;;14.80;6.50;;;;;;;5.47;57.81;100718.02;133510;1308;22475;-73
2024/03/17 16:50:32;;;;;;;15.20;5.30;;;;;;;5.39;58.29;100727.54;133497;1304;22435;-72
2024/03/17 16:54:36;;;;;;;10.90;5.00;;;;;;;5.34;58.33;100729.85;134131;1295;22469;-73
2024/03/17 16:58:07;;;;;;;9.70;4.60;;;;;;;5.30;58.67;100732.16;134167;1299;22715;-73
2024/03/17 17:06:05;;;;;;;7.50;4.30;;;;;;;5.17;59.06;100732.98;133879;1297;23153;-73
2024/03/17 17:09:38;;;;;;;9.80;5.10;;;;;;;5.11;59.10;100733.77;133859;1305;22394;-75
2024/03/17 17:13:00;;;;;;;8.40;4.60;;;;;;;5.06;59.16;100737.69;134096;1300;22494;-72
2024/03/17 17:16:50;;;;;;;11.40;5.60;;;;;;;5.03;59.14;100736.33;133936;1298;22402;-73
2024/03/17 17:20:37;;;;;;;;;;;;;;;;;;;;;
2024/03/17 17:24:41;;;;;;;10.40;5.80;;;;;;;4.94;59.79;100742.05;134293;1299;22300;-73
2024/03/17 17:28:06;;;;;;;10.10;5.40;;;;;;;4.90;59.54;100748.97;134233;1298;22365;-77
2024/03/17 17:32:00;;;;;;;9.50;5.00;;;;;;;4.84;59.67;100753.13;133913;1301;22370;-72
2024/03/17 17:35:24;;;;;;;9.30;4.40;;;;;;;4.75;59.16;100752.05;133742;1305;22299;-72
2024/03/17 17:39:08;;;;;;;;;;;;;;;;;;;;;
2024/03/17 17:42:37;;;;;;;6.60;4.60;;;;;;;4.66;59.53;100753.91;134308;1301;22380;-75
2024/03/17 17:46:31;;;;;;;10.60;5.50;;;;;;;4.65;59.61;100750.85;134083;1298;23011;-73
2024/03/17 17:49:47;;;;;;;11.20;4.30;;;;;;;4.62;59.61;100754.65;134271;1298;22480;-73
2024/03/17 17:53:23;;;;;;;10.20;4.90;;;;;;;4.58;59.59;100755.26;134260;1297;22347;-78
2024/03/17 17:56:54;;;;;;;7.70;4.50;;;;;;;4.54;59.95;100753.80;134209;1298;22348;-72
2024/03/17 18:00:38;;;;;;;9.00;4.60;;;;;;;4.51;60.03;100749.31;133561;1299;22485;-74
2024/03/17 18:04:10;;;;;;;10.30;4.60;;;;;;;4.46;59.89;100749.11;134038;1298;23034;-74
2024/03/17 18:07:38;;;;;;;8.70;5.00;;;;;;;4.43;59.84;100750.92;134110;1302;23136;-73
2024/03/17 18:10:54;;;;;;;10.00;5.10;;;;;;;4.40;60.29;100755.69;134077;1298;22511;-73
2024/03/17 18:14:24;;;;;;;8.40;5.20;;;;;;;4.35;60.30;100754.67;133886;1298;22709;-72
2024/03/17 18:17:41;;;;;;;9.90;5.60;;;;;;;4.31;60.19;100753.34;133878;1300;22286;-73
2024/03/17 18:21:37;;;;;;;9.60;5.50;;;;;;;4.27;60.35;100757.86;134063;1298;22368;-74
2024/03/17 18:25:14;;;;;;;16.90;9.20;;;;;;;4.23;60.79;100757.77;134103;1292;22224;-73
2024/03/17 18:28:42;;;;;;;17.90;7.70;;;;;;;4.21;60.67;100757.36;134079;1301;22259;-74
2024/03/17 18:32:33;;;;;;;10.30;5.90;;;;;;;4.21;61.12;100759.67;133877;1297;22413;-75
2024/03/17 18:36:50;;;;;;;;;;;;;;;;;;;;;
2024/03/17 18:40:43;;;;;;;10.80;6.00;;;;;;;4.15;61.15;100761.36;133871;1306;22304;-75
2024/03/17 18:44:40;;;;;;;15.90;7.10;;;;;;;4.11;61.18;100759.70;134052;1302;22481;-73
2024/03/17 18:47:41;;;;;;;13.50;7.00;;;;;;;4.04;61.02;100763.15;134110;1301;23263;-72